Melbourne International Airport
YMML : now visible

Airfield :











YOU CAN JOIN US ON...

 
LOGIN :

Register | Disclaimer

   EN    FR    IT 

 









Legend :    VFR   Marginal VFR   IFR   Intensive IFR   Very Intensive IFR
Visi :
Ceiling :
>= 8 km
>= 3000ft
5 to 8 km
1000 to 3000 ft
1500m to 5 km
500 to 1000 ft
800 to 1500m
200 to 500 ft
< 800m
< 200 ft
Symbols :   Thunderstorms  Fog  Heavy snow  Heavy precipitations  Wind > 20 kt






- Airport Elevation : 434 ft
- IATA code : MEL


YMML - Melbourne International

CURRENT METAR :
  • 252208Z 01005KT 9999 SCT010 18/15 Q1013

EXPIRED METARs :
  • 252130Z 28004KT 9999 BKN007 17/15 Q1014 FM2145 28005KT 9999 SCT008 FM2230 28005KT CAVOK
  • 252100Z 27005KT 9999 BKN007 BKN320 16/14 Q1014 RF00.0/000.0
  • 252030Z 27005KT 9999 FEW013 SCT320 15/14 Q1013 TEMPO 2100/2200 BKN012
  • 252000Z 27006KT 9999 FEW013 14/13 Q1013 TEMPO 2030/2200 BKN012
  • 251930Z 36003KT CAVOK 13/12 Q1013 NOSIG

TAF AMD TAF YMML
Valid from the 25 at 21:00 until the 27 at 00:00 UTC


252115Z 2521/2700 28005KT 9999 BKN008
BECMG 2521/2523 20012KT 9999 SCT030
BECMG 2605/2607 18015KT 9999 FEW015 BKN020
FM261000 16008KT 9999 FEW015 BKN020
FM261400 16004KT 9999 SCT025



MET'MAP, your aeronautical weather chart ! - Copyright ORBIFLY December 2007 - Disclaimer

ORBIFLY MET'MAP TEAM :

Programming & Development : Alexandra Zaïnal
Concept & original design : Baudouin d'Aumeries
Assistance for programming : Marc-Olivier Méhu
Technical & hardware support : Manuel Goepfert

Contact : metmap@orbifly.com




SOURCES & CREDITS :

   NOAA       Earth
Advisory